^^
Station Historical Data
Daily Summary for November 14, 2017 Units:  Metric    English   Both
« Previous Day
Next Day »
Daily Weekly Monthly Yearly Custom
  High: Low: Average:
Temperature: 22.3 °C 11.7 °C 16.7 °C
Dew Point: 8.4 °C 2.8 °C 5.7 °C
Humidity: 68% 28% 50%
Wind Speed: 37km/h 9.7km/h 23km/h
Wind Gust: 41.8km/h - -
Wind- - SSW
Pressure: 1013.1 hPa 1006.7 hPa -
Precipitation: 0 mm    
Historical Graphs
 
 
Tabular Data for November 14, 2017
Time Temperature Dew Point Pressure Wind Wind Speed Wind Gust Humidity Rainfall Rate (Hourly) solar Conditions
07:55 14.1 °C 8.1 °C 1009.4 hPa SSW 20.9 km/h 22.5 km/h 67% 0 mm 241.0 W/m2
08:05 14.2 °C 8.4 °C 1009.7 hPa SSW 20.9 km/h 29 km/h 68% 0 mm 279.0 W/m2
08:16 14.3 °C 8 °C 1009.7 hPa South 19.5 km/h 24.1 km/h 66% 0 mm 299.0 W/m2
08:31 14.4 °C 8.1 °C 1009.7 hPa SSW 24.1 km/h 25.7 km/h 66% 0 mm 367.0 W/m2
08:46 14.6 °C 8.3 °C 1009.7 hPa SSW 16.3 km/h 27.4 km/h 66% 0 mm 396.0 W/m2
09:01 14.8 °C 8.1 °C 1009.7 hPa South 14.3 km/h 25.7 km/h 64% 0 mm 693.0 W/m2
09:17 15.4 °C 7.9 °C 1009.7 hPa South 22.7 km/h 22.7 km/h 61% 0 mm 686.0 W/m2
09:31 15.4 °C 7.9 °C 1009.4 hPa SSE 25.9 km/h 27.4 km/h 61% 0 mm 371.0 W/m2
09:44 15.8 °C 7.6 °C 1009.4 hPa South 25.9 km/h 33.8 km/h 58% 0 mm 327.0 W/m2
09:52 15.5 °C 7.3 °C 1009.7 hPa South 17.7 km/h 32.2 km/h 58% 0 mm 262.0 W/m2
10:07 15.9 °C 7.4 °C 1009.4 hPa South 22.7 km/h 30.6 km/h 57% 0 mm 531.0 W/m2
10:16 16.3 °C 7.2 °C 1009.4 hPa South 22.7 km/h 30.6 km/h 55% 0 mm 594.0 W/m2
10:21 16.1 °C 7.3 °C 1009.7 hPa SSW 19.5 km/h 25.7 km/h 56% 0 mm 494.0 W/m2
10:27 16.1 °C 7.3 °C 1009.7 hPa South 30.6 km/h 30.6 km/h 56% 0 mm 466.0 W/m2
10:38 16.6 °C 7.3 °C 1009.7 hPa SSW 17.7 km/h 27.4 km/h 54% 0 mm 673.0 W/m2
10:43 16.6 °C 7.3 °C 1009.4 hPa South 20.9 km/h 25.7 km/h 54% 0 mm 652.0 W/m2
10:57 16.8 °C 6.9 °C 1009.4 hPa SSW 24.1 km/h 27.4 km/h 52% 0 mm 670.0 W/m2
11:13 17.5 °C 6.7 °C 1009 hPa SSW 19.5 km/h 30.6 km/h 49% 0 mm 534.0 W/m2
11:53 18.3 °C 6.2 °C 1009 hPa SSW 16.3 km/h 22.5 km/h 45% 0 mm 1062.0 W/m2
12:22 19.4 °C 5.5 °C 1009 hPa SSW 20.9 km/h 25.7 km/h 40% 0 mm 722.0 W/m2
12:52 20.3 °C 5.1 °C 1008.4 hPa SSW 17.7 km/h 22.5 km/h 37% 0 mm 1046.0 W/m2
13:07 20.3 °C 4.7 °C 1008.4 hPa South 17.7 km/h 27.4 km/h 36% 0 mm 842.0 W/m2
13:38 21.1 °C 5 °C 1008 hPa South 19.5 km/h 27.4 km/h 35% 0 mm 633.0 W/m2
13:51 21.3 °C 4.8 °C 1008 hPa SW 14.3 km/h 29 km/h 34% 0 mm 605.0 W/m2
14:05 21.2 °C 4.3 °C 1008 hPa SSW 19.5 km/h 25.7 km/h 33% 0 mm 459.0 W/m2
14:13 20.8 °C 3.5 °C 1007.7 hPa SSW 13 km/h 19.3 km/h 32% 0 mm 427.0 W/m2
14:20 20.7 °C 4.3 °C 1007.7 hPa SW 14.3 km/h 19.3 km/h 34% 0 mm 399.0 W/m2
14:27 20.9 °C 3.6 °C 1007.7 hPa SSW 11.1 km/h 20.9 km/h 32% 0 mm 499.0 W/m2
14:39 20.9 °C 3.6 °C 1007.3 hPa SW 16.3 km/h 19.3 km/h 32% 0 mm 557.0 W/m2
14:48 21.4 °C 4 °C 1007.3 hPa South 11.1 km/h 20.9 km/h 32% 0 mm 814.0 W/m2
14:57 22.2 °C 4.3 °C 1007.3 hPa South 9.7 km/h 12.9 km/h 31% 0 mm 830.0 W/m2
15:46 22.2 °C 2.8 °C 1006.7 hPa SSW 16.3 km/h 25.7 km/h 28% 0 mm 675.0 W/m2
15:57 22.3 °C 3.4 °C 1006.7 hPa South 22.7 km/h 27.4 km/h 29% 0 mm 615.0 W/m2
16:47 21.6 °C 5.5 °C 1007 hPa SSW 30.6 km/h 37 km/h 35% 0 mm 466.0 W/m2
17:02 21.2 °C 5.5 °C 1007 hPa SSW 27.4 km/h 33.8 km/h 36% 0 mm 415.0 W/m2
17:18 20.7 °C 6.2 °C 1007.3 hPa SSW 28.8 km/h 35.4 km/h 39% 0 mm 364.0 W/m2
17:32 19.9 °C 6.3 °C 1007.3 hPa SSW 37 km/h 40.2 km/h 41% 0 mm 311.0 W/m2
17:42 19.8 °C 6.2 °C 1007.7 hPa SSW 35.2 km/h 38.6 km/h 41% 0 mm 274.0 W/m2
17:49 19.3 °C 6.4 °C 1007.7 hPa SSW 30.6 km/h 37 km/h 43% 0 mm 241.0 W/m2
17:56 19.2 °C 6.3 °C 1007.7 hPa SSW 19.5 km/h 40.2 km/h 43% 0 mm 221.0 W/m2
18:18 18.6 °C 5.8 °C 1008.4 hPa South 20.9 km/h 37 km/h 43% 0 mm 141.0 W/m2
18:32 18.1 °C 5.7 °C 1008.7 hPa SSW 24.1 km/h 40.2 km/h 44% 0 mm 83.0 W/m2
18:53 17.2 °C 5.5 °C 1009 hPa SSW 28.8 km/h 41.8 km/h 46% 0 mm 26.0 W/m2
19:09 16.4 °C 5.7 °C 1009 hPa SSW 27.4 km/h 35.4 km/h 49% 0 mm 7.0 W/m2
20:08 14.8 °C 4.5 °C 1010.4 hPa SSW 32 km/h 37 km/h 50% 0 mm 0.0 W/m2
20:22 14.4 °C 4.7 °C 1010.7 hPa SSW 24.1 km/h 35.4 km/h 52% 0 mm 0.0 W/m2
20:34 14.3 °C 4.6 °C 1010.7 hPa SSW 24.1 km/h 37 km/h 52% 0 mm 0.0 W/m2
21:04 13.9 °C 4.7 °C 1011.1 hPa SSW 27.4 km/h 27.4 km/h 54% 0 mm 0.0 W/m2
21:19 13.7 °C 4.6 °C 1011.4 hPa SSW 24.1 km/h 33.8 km/h 54% 0 mm 0.0 W/m2
21:34 13.5 °C 4.9 °C 1011.7 hPa SSW 27.4 km/h 33.8 km/h 56% 0 mm 0.0 W/m2
22:03 13.3 °C 5.2 °C 1012.1 hPa SSW 27.4 km/h 29 km/h 58% 0 mm 0.0 W/m2
22:28 13.3 °C 5 °C 1012.4 hPa South 28.8 km/h 40.2 km/h 57% 0 mm 0.0 W/m2
22:37 13.2 °C 4.9 °C 1012.4 hPa SSW 28.8 km/h 30.6 km/h 57% 0 mm 0.0 W/m2
22:48 13.1 °C 4.8 °C 1012.8 hPa South 35.2 km/h 35.4 km/h 57% 0 mm 0.0 W/m2
22:55 12.8 °C 4.5 °C 1012.8 hPa South 30.6 km/h 32.2 km/h 57% 0 mm 0.0 W/m2
23:04 12.6 °C 4.3 °C 1013.1 hPa South 24.1 km/h 32.2 km/h 57% 0 mm 0.0 W/m2
23:09 12.4 °C 4.6 °C 1013.1 hPa SSE 19.5 km/h 32.2 km/h 59% 0 mm 0.0 W/m2
23:19 12.2 °C 4.4 °C 1013.1 hPa South 25.9 km/h 30.6 km/h 59% 0 mm 0.0 W/m2
23:29 12 °C 4.7 °C 1013.1 hPa South 27.4 km/h 30.6 km/h 61% 0 mm 0.0 W/m2
23:34 11.9 °C 4.8 °C 1012.8 hPa South 22.7 km/h 37 km/h 62% 0 mm 0.0 W/m2
23:39 11.8 °C 5 °C 1012.8 hPa South 25.9 km/h 37 km/h 63% 0 mm 0.0 W/m2
23:49 11.7 °C 5.1 °C 1013.1 hPa South 28.8 km/h 30.6 km/h 64% 0 mm 0.0 W/m2
23:54 11.7 °C 5.1 °C 1013.1 hPa South 32 km/h 32.2 km/h 64% 0 mm 0.0 W/m2
Canyon Roadhouse, Fishriver Canyon, Namibia
Compliments of Weather Underground - 2 mb